createdAt,value
2018-06-18T00:01:34.468Z,100748.94
2018-06-18T00:04:02.979Z,100753.58
2018-06-18T00:06:31.423Z,100754.09
2018-06-18T00:09:00.009Z,100748.50
2018-06-18T00:11:28.575Z,100754.67
2018-06-18T00:13:57.005Z,100759.81
2018-06-18T00:16:25.427Z,100770.91
2018-06-18T00:18:53.916Z,100765.77
2018-06-18T00:21:22.707Z,100775.55
2018-06-18T00:23:51.087Z,100773.74
2018-06-18T00:26:19.591Z,100782.73
2018-06-18T00:28:48.003Z,100785.42
2018-06-18T00:31:16.479Z,100788.17
2018-06-18T00:33:45.157Z,100788.64
2018-06-18T00:36:13.571Z,100792.88
2018-06-18T00:38:42.056Z,100798.69
2018-06-18T00:41:10.568Z,100791.72
2018-06-18T00:43:39.046Z,100781.66
2018-06-18T00:46:07.732Z,100781.98
2018-06-18T00:48:36.142Z,100784.16
2018-06-18T00:51:04.668Z,100783.96
2018-06-18T00:53:33.139Z,100773.10
2018-06-18T00:56:15.600Z,100763.83
2018-06-18T00:58:44.303Z,100772.42
2018-06-18T01:01:13.275Z,100777.79
2018-06-18T01:03:42.011Z,100783.30
2018-06-18T01:06:10.447Z,100787.05
2018-06-18T01:08:38.955Z,100782.52
2018-06-18T01:11:07.474Z,100783.13
2018-06-18T01:13:35.867Z,100772.61
2018-06-18T01:16:04.627Z,100771.81
2018-06-18T01:18:33.895Z,100777.75
2018-06-18T01:21:02.385Z,100777.73
2018-06-18T01:25:43.423Z,100782.52
2018-06-18T01:28:11.959Z,100774.97
2018-06-18T01:30:40.439Z,100775.26
2018-06-18T01:33:08.867Z,100773.23
2018-06-18T01:35:37.303Z,100781.47
2018-06-18T01:38:05.960Z,100771.92
2018-06-18T01:40:34.371Z,100756.98
2018-06-18T01:43:02.901Z,100760.88
2018-06-18T01:45:31.575Z,100755.86
2018-06-18T01:48:00.052Z,100753.22
2018-06-18T01:50:28.479Z,100752.73
2018-06-18T01:52:56.887Z,100754.61
2018-06-18T01:55:25.288Z,100756.36
2018-06-18T01:57:53.823Z,100757.89
2018-06-18T02:00:22.256Z,100757.88
2018-06-18T02:02:50.643Z,100753.71
2018-06-18T02:05:19.179Z,100753.16
2018-06-18T02:07:47.653Z,100764.01
2018-06-18T02:10:16.128Z,100766.52
2018-06-18T02:12:44.612Z,100756.19
2018-06-18T02:15:13.019Z,100743.98
2018-06-18T02:17:41.559Z,100735.42
2018-06-18T02:20:10.020Z,100741.48
2018-06-18T02:22:38.527Z,100747.91
2018-06-18T02:25:07.009Z,100755.64
2018-06-18T02:27:40.719Z,100758.89
2018-06-18T02:30:14.495Z,100750.55
2018-06-18T02:32:48.279Z,100744.02
2018-06-18T02:35:21.927Z,100745.59
2018-06-18T02:37:55.579Z,100745.16
2018-06-18T02:40:29.356Z,100758.34
2018-06-18T02:42:57.803Z,100764.75
2018-06-18T02:45:26.236Z,100773.99
2018-06-18T02:47:54.961Z,100778.16
2018-06-18T02:50:23.470Z,100768.86
2018-06-18T02:52:51.963Z,100760.55
2018-06-18T02:55:20.475Z,100770.24
2018-06-18T02:57:48.984Z,100772.44
2018-06-18T03:00:17.432Z,100785.84
2018-06-18T03:02:45.934Z,100780.30
2018-06-18T03:05:14.671Z,100770.58
2018-06-18T03:07:43.150Z,100776.11
2018-06-18T03:10:11.651Z,100779.15
2018-06-18T03:12:40.295Z,100773.78
2018-06-18T03:15:08.731Z,100778.34
2018-06-18T03:17:37.138Z,100780.08
2018-06-18T03:20:10.951Z,100778.45
2018-06-18T03:22:44.674Z,100780.80
2018-06-18T03:25:18.393Z,100784.98
2018-06-18T03:27:52.024Z,100781.33
2018-06-18T03:30:20.469Z,100785.28
2018-06-18T03:32:49.975Z,100781.36
2018-06-18T03:35:18.474Z,100777.17
2018-06-18T03:37:46.971Z,100773.36
2018-06-18T03:40:15.469Z,100776.67
2018-06-18T03:42:44.723Z,100787.49
2018-06-18T03:45:34.155Z,100777.23
2018-06-18T03:48:06.803Z,100780.22
2018-06-18T03:50:35.565Z,100775.13
2018-06-18T03:53:04.131Z,100770.44
2018-06-18T03:55:35.911Z,100770.61
2018-06-18T03:58:08.691Z,100777.24
2018-06-18T04:01:05.743Z,100785.59
2018-06-18T04:03:39.499Z,100795.94
2018-06-18T04:06:13.211Z,100796.17
2018-06-18T04:08:41.728Z,100798.11
2018-06-18T04:11:15.476Z,100796.20
2018-06-18T04:13:44.112Z,100794.01
2018-06-18T04:16:12.719Z,100787.55
2018-06-18T04:18:46.419Z,100790.95
2018-06-18T04:21:14.839Z,100790.66
2018-06-18T04:23:43.323Z,100789.92
2018-06-18T04:26:11.835Z,100793.65
2018-06-18T04:28:40.307Z,100797.47
2018-06-18T04:31:08.852Z,100796.84
2018-06-18T04:33:40.076Z,100790.63
2018-06-18T04:36:08.608Z,100780.78
2018-06-18T04:38:37.040Z,100782.77
2018-06-18T04:41:05.464Z,100780.36
2018-06-18T04:44:41.053Z,100775.40
2018-06-18T04:47:14.791Z,100775.58
2018-06-18T04:49:48.416Z,100774.81
2018-06-18T04:52:16.907Z,100775.11
2018-06-18T04:54:45.331Z,100783.97
2018-06-18T04:57:13.753Z,100778.54
2018-06-18T04:59:45.468Z,100783.74
2018-06-18T05:02:13.847Z,100782.66
2018-06-18T05:04:42.292Z,100783.30
2018-06-18T05:07:10.805Z,100787.26
2018-06-18T05:09:48.403Z,100788.39
2018-06-18T05:12:16.947Z,100788.48
2018-06-18T05:14:45.327Z,100795.38
2018-06-18T05:17:13.959Z,100798.60
2018-06-18T05:19:42.451Z,100804.14
2018-06-18T05:22:10.864Z,100801.51
2018-06-18T05:24:39.363Z,100805.66
2018-06-18T05:27:10.776Z,100801.88
2018-06-18T05:29:39.695Z,100814.55
2018-06-18T05:32:08.099Z,100810.98
2018-06-18T05:34:36.520Z,100814.88
2018-06-18T05:38:11.587Z,100808.55
2018-06-18T05:40:40.051Z,100809.73
2018-06-18T05:43:08.726Z,100812.12
2018-06-18T05:45:37.095Z,100807.30
2018-06-18T05:48:05.525Z,100802.91
2018-06-18T05:50:33.981Z,100808.12
2018-06-18T05:53:02.420Z,100797.42
2018-06-18T05:55:31.291Z,100798.84
2018-06-18T05:57:59.835Z,100796.06
2018-06-18T06:00:28.319Z,100797.95
2018-06-18T06:02:56.814Z,100801.30
2018-06-18T06:05:25.204Z,100806.42
2018-06-18T06:07:53.972Z,100804.20
2018-06-18T06:10:22.499Z,100807.16
2018-06-18T06:12:51.016Z,100802.27
2018-06-18T06:15:19.498Z,100796.39
2018-06-18T06:17:47.915Z,100810.59
2018-06-18T06:20:16.487Z,100818.31
2018-06-18T06:22:44.951Z,100812.32
2018-06-18T06:25:13.499Z,100823.13
2018-06-18T06:27:41.951Z,100815.27
2018-06-18T06:30:10.472Z,100815.04
2018-06-18T06:32:38.944Z,100812.92
2018-06-18T06:35:27.264Z,100814.14
2018-06-18T06:37:56.463Z,100813.84
2018-06-18T06:40:25.658Z,100835.72
2018-06-18T06:42:54.244Z,100835.44
2018-06-18T06:45:22.975Z,100842.59
2018-06-18T06:47:51.654Z,100841.02
2018-06-18T06:50:20.119Z,100840.41
2018-06-18T06:52:48.626Z,100834.48
2018-06-18T06:55:17.111Z,100833.90
2018-06-18T06:57:45.632Z,100831.55
2018-06-18T07:00:14.560Z,100835.12
2018-06-18T07:02:42.955Z,100835.92
2018-06-18T07:05:11.347Z,100838.78
2018-06-18T07:07:39.833Z,100845.34
2018-06-18T07:10:08.659Z,100844.39
2018-06-18T07:12:37.280Z,100836.95
2018-06-18T07:15:06.200Z,100840.26
2018-06-18T07:17:34.827Z,100846.66
2018-06-18T07:20:03.271Z,100847.50
2018-06-18T07:22:31.797Z,100856.05
2018-06-18T07:25:00.227Z,100847.77
2018-06-18T07:27:28.827Z,100849.41
2018-06-18T07:29:57.223Z,100840.22
2018-06-18T07:32:25.711Z,100841.16
2018-06-18T07:34:54.300Z,100841.38
2018-06-18T07:37:22.681Z,100842.57
2018-06-18T07:39:51.131Z,100839.50
2018-06-18T07:42:19.591Z,100841.16
2018-06-18T07:44:48.203Z,100837.53
2018-06-18T07:47:16.700Z,100836.06
2018-06-18T07:49:45.343Z,100832.40
2018-06-18T07:52:13.839Z,100829.72
2018-06-18T07:54:42.267Z,100832.06
2018-06-18T07:57:10.760Z,100827.56
2018-06-18T07:59:39.445Z,100828.14
2018-06-18T08:02:07.987Z,100828.60
2018-06-18T08:04:36.419Z,100826.20
2018-06-18T08:07:04.831Z,100834.69
2018-06-18T08:09:33.484Z,100830.30
2018-06-18T08:12:01.951Z,100826.98
2018-06-18T08:14:30.435Z,100834.20
2018-06-18T08:16:58.960Z,100825.59
2018-06-18T08:19:27.423Z,100829.60
2018-06-18T08:21:55.795Z,100820.97
2018-06-18T08:24:24.307Z,100823.37
2018-06-18T08:26:52.786Z,100824.78
2018-06-18T08:29:21.327Z,100823.98
2018-06-18T08:31:49.768Z,100831.89
2018-06-18T08:34:18.187Z,100830.28
2018-06-18T08:36:46.696Z,100825.53
2018-06-18T08:39:15.079Z,100821.71
2018-06-18T08:41:43.587Z,100820.09
2018-06-18T08:44:12.050Z,100813.11
2018-06-18T08:46:40.551Z,100812.49
2018-06-18T08:49:09.680Z,100807.13
2018-06-18T08:51:43.295Z,100802.91
2018-06-18T08:54:17.015Z,100807.41
2018-06-18T08:56:50.759Z,100810.45
2018-06-18T08:59:24.432Z,100807.84
2018-06-18T09:01:52.986Z,100813.56
2018-06-18T09:04:26.733Z,100809.45
2018-06-18T09:06:59.347Z,100807.95
2018-06-18T09:09:27.891Z,100809.61
2018-06-18T09:11:56.503Z,100816.64
2018-06-18T09:14:24.903Z,100809.84
2018-06-18T09:16:53.431Z,100817.70
2018-06-18T09:19:21.847Z,100820.47
2018-06-18T09:21:50.467Z,100820.59
2018-06-18T09:24:21.314Z,100820.73
2018-06-18T09:26:52.620Z,100820.81
2018-06-18T09:29:21.031Z,100824.72
2018-06-18T09:31:49.471Z,100816.78
2018-06-18T09:34:18.028Z,100820.36
2018-06-18T09:36:46.428Z,100818.66
2018-06-18T09:39:14.876Z,100817.50
2018-06-18T09:41:43.249Z,100817.85
2018-06-18T09:44:11.643Z,100814.47
2018-06-18T09:46:40.152Z,100815.86
2018-06-18T09:49:13.793Z,100812.17
2018-06-18T09:51:47.550Z,100819.58
2018-06-18T09:54:21.299Z,100819.95
2018-06-18T09:56:55.092Z,100815.33
2018-06-18T09:59:38.911Z,100815.92
2018-06-18T10:02:07.879Z,100823.45
2018-06-18T10:04:36.352Z,100819.41
2018-06-18T10:07:04.887Z,100821.23
2018-06-18T10:09:33.327Z,100824.47
2018-06-18T10:12:02.016Z,100827.33
2018-06-18T10:14:30.491Z,100829.44
2018-06-18T10:16:58.931Z,100832.02
2018-06-18T10:19:27.423Z,100820.59
2018-06-18T10:21:55.928Z,100815.98
2018-06-18T10:24:24.605Z,100828.12
2018-06-18T10:26:53.091Z,100826.23
2018-06-18T10:29:21.517Z,100826.09
2018-06-18T10:31:50.010Z,100830.91
2018-06-18T10:34:23.855Z,100816.97
2018-06-18T10:36:57.735Z,100824.69
2018-06-18T10:39:31.335Z,100820.56
2018-06-18T10:42:05.179Z,100828.49
2018-06-18T10:44:33.659Z,100820.21
2018-06-18T10:47:02.328Z,100821.22
2018-06-18T10:49:30.751Z,100822.81
2018-06-18T10:51:59.235Z,100827.11
2018-06-18T10:54:27.758Z,100822.41
2018-06-18T10:56:56.311Z,100825.06
2018-06-18T10:59:24.853Z,100819.17
2018-06-18T11:01:53.342Z,100823.69
2018-06-18T11:04:27.315Z,100821.39
2018-06-18T11:06:55.691Z,100818.05
2018-06-18T11:09:24.063Z,100817.92
2018-06-18T11:11:53.079Z,100816.17
2018-06-18T11:14:21.523Z,100819.97
2018-06-18T11:17:57.475Z,100815.61
2018-06-18T11:20:31.159Z,100818.59
2018-06-18T11:23:05.133Z,100816.78
2018-06-18T11:26:36.591Z,100817.83
2018-06-18T11:29:05.255Z,100818.41
2018-06-18T11:31:33.732Z,100815.92
2018-06-18T11:34:02.407Z,100813.81
2018-06-18T11:36:30.912Z,100817.11
2018-06-18T11:38:59.311Z,100813.08
2018-06-18T11:41:28.059Z,100814.66
2018-06-18T11:43:56.467Z,100817.97
2018-06-18T11:46:25.055Z,100821.48
2018-06-18T11:48:53.568Z,100815.68
2018-06-18T11:51:22.076Z,100808.38
2018-06-18T11:53:50.612Z,100804.61
2018-06-18T11:56:19.051Z,100802.60
2018-06-18T11:58:52.890Z,100803.26
2018-06-18T12:01:26.705Z,100801.00
2018-06-18T12:04:00.495Z,100802.73
2018-06-18T12:06:34.071Z,100797.72
2018-06-18T12:09:07.816Z,100802.10
2018-06-18T12:11:36.377Z,100796.72
2018-06-18T12:14:04.828Z,100794.43
2018-06-18T12:16:36.471Z,100788.38
2018-06-18T12:19:05.750Z,100797.80
2018-06-18T12:21:34.647Z,100799.78
2018-06-18T12:24:03.095Z,100796.91
2018-06-18T12:26:32.015Z,100797.13
2018-06-18T12:29:00.508Z,100795.72
2018-06-18T12:31:28.999Z,100800.89
2018-06-18T12:33:57.776Z,100802.07
2018-06-18T12:36:26.279Z,100811.30
2018-06-18T12:38:54.711Z,100809.52
2018-06-18T12:41:23.169Z,100814.86
2018-06-18T12:43:55.515Z,100809.74
2018-06-18T12:46:29.218Z,100811.60
2018-06-18T12:49:02.917Z,100813.09
2018-06-18T12:51:36.544Z,100808.62
2018-06-18T12:54:10.147Z,100805.33
2018-06-18T12:56:43.957Z,100802.39
2018-06-18T12:59:12.415Z,100804.70
2018-06-18T13:01:46.471Z,100798.00
2018-06-18T13:04:14.946Z,100794.99
2018-06-18T13:06:43.359Z,100802.84
2018-06-18T13:09:11.767Z,100799.43
2018-06-18T13:11:40.711Z,100802.13
2018-06-18T13:14:09.103Z,100797.75
2018-06-18T13:16:37.503Z,100799.17
2018-06-18T13:19:06.160Z,100795.31
2018-06-18T13:21:34.604Z,100794.81
2018-06-18T13:24:03.284Z,100804.73
2018-06-18T13:26:31.696Z,100803.26
2018-06-18T13:29:00.150Z,100800.36
2018-06-18T13:31:28.727Z,100810.80
2018-06-18T13:33:57.103Z,100811.39
2018-06-18T13:36:25.798Z,100808.03
2018-06-18T13:38:59.380Z,100815.45
2018-06-18T13:41:33.039Z,100808.75
2018-06-18T13:44:06.823Z,100811.53
2018-06-18T13:46:40.620Z,100801.95
2018-06-18T13:49:09.026Z,100807.84
2018-06-18T13:51:37.451Z,100813.80
2018-06-18T13:54:05.944Z,100802.67
2018-06-18T13:56:34.411Z,100801.09
2018-06-18T13:59:02.855Z,100804.16
2018-06-18T14:01:31.283Z,100803.33
2018-06-18T14:03:59.713Z,100806.13
2018-06-18T14:06:28.331Z,100795.80
2018-06-18T14:08:56.759Z,100793.31
2018-06-18T14:11:25.472Z,100799.87
2018-06-18T14:13:54.013Z,100803.66
2018-06-18T14:16:22.489Z,100803.49
2018-06-18T14:18:50.979Z,100803.30
2018-06-18T14:21:19.396Z,100803.80
2018-06-18T14:23:48.087Z,100804.59
2018-06-18T14:26:16.552Z,100804.53
2018-06-18T14:28:44.987Z,100809.25
2018-06-18T14:31:18.642Z,100810.41
2018-06-18T14:33:52.343Z,100811.81
2018-06-18T14:36:26.124Z,100812.05
2018-06-18T14:38:59.891Z,100813.16
2018-06-18T14:41:28.304Z,100815.12
2018-06-18T14:43:56.705Z,100813.56
2018-06-18T14:46:25.467Z,100811.80
2018-06-18T14:48:53.942Z,100813.52
2018-06-18T14:51:22.395Z,100812.41
2018-06-18T14:53:50.811Z,100805.33
2018-06-18T14:56:24.176Z,100803.55
2018-06-18T14:59:05.191Z,100800.84
2018-06-18T15:01:33.667Z,100801.27
2018-06-18T15:04:02.208Z,100798.83
2018-06-18T15:06:30.615Z,100801.96
2018-06-18T15:08:59.240Z,100800.60
2018-06-18T15:11:27.651Z,100806.14
2018-06-18T15:13:56.279Z,100803.33
2018-06-18T15:16:30.421Z,100794.73
2018-06-18T15:19:00.016Z,100796.59
2018-06-18T15:21:29.699Z,100794.38
2018-06-18T15:23:59.451Z,100794.52
2018-06-18T15:26:28.243Z,100799.07
2018-06-18T15:28:56.743Z,100787.71
2018-06-18T15:31:25.217Z,100794.77
2018-06-18T15:33:53.643Z,100797.72
2018-06-18T15:36:22.183Z,100789.80
2018-06-18T15:38:50.628Z,100793.13
2018-06-18T15:41:19.059Z,100790.72
2018-06-18T15:43:47.536Z,100793.75
2018-06-18T15:46:16.459Z,100797.94
2018-06-18T15:48:44.920Z,100789.45
2018-06-18T15:51:13.379Z,100786.05
2018-06-18T15:53:41.879Z,100780.41
2018-06-18T15:56:10.411Z,100784.98
2018-06-18T15:58:39.027Z,100777.80
2018-06-18T16:01:07.439Z,100775.60
2018-06-18T16:03:35.847Z,100781.56
2018-06-18T16:06:04.407Z,100779.70
2018-06-18T16:08:32.799Z,100768.80
2018-06-18T16:11:01.399Z,100763.83
2018-06-18T16:13:29.904Z,100769.78
2018-06-18T16:15:58.397Z,100765.08
2018-06-18T16:18:26.840Z,100764.72
2018-06-18T16:20:55.242Z,100770.63
2018-06-18T16:23:23.712Z,100765.84
2018-06-18T16:25:52.184Z,100764.95
2018-06-18T16:28:20.596Z,100758.39
2018-06-18T16:30:49.079Z,100761.34
2018-06-18T16:33:17.598Z,100760.02
2018-06-18T16:35:46.233Z,100762.58
2018-06-18T16:38:14.668Z,100758.91
2018-06-18T16:40:43.171Z,100757.42
2018-06-18T16:43:11.674Z,100763.81
2018-06-18T16:45:40.207Z,100759.48
2018-06-18T16:48:08.815Z,100756.06
2018-06-18T16:50:37.265Z,100767.52
2018-06-18T16:53:05.958Z,100766.37
2018-06-18T16:55:34.444Z,100762.11
2018-06-18T16:58:03.171Z,100767.05
2018-06-18T17:00:32.047Z,100762.73
2018-06-18T17:03:00.435Z,100766.43
2018-06-18T17:05:28.914Z,100766.66
2018-06-18T17:07:57.424Z,100758.29
2018-06-18T17:10:25.920Z,100753.09
2018-06-18T17:12:54.562Z,100758.28
2018-06-18T17:15:23.116Z,100760.09
2018-06-18T17:17:51.611Z,100755.69
2018-06-18T17:20:20.024Z,100746.89
2018-06-18T17:22:48.408Z,100756.10
2018-06-18T17:25:17.254Z,100760.67
2018-06-18T17:27:45.783Z,100763.78
2018-06-18T17:30:14.199Z,100770.23
2018-06-18T17:32:42.682Z,100764.95
2018-06-18T17:35:11.071Z,100763.31
2018-06-18T17:37:39.749Z,100759.89
2018-06-18T17:40:08.299Z,100756.35
2018-06-18T17:42:36.707Z,100759.73
2018-06-18T17:45:05.249Z,100763.46
2018-06-18T17:47:33.759Z,100761.89
2018-06-18T17:50:02.281Z,100766.33
2018-06-18T17:52:30.694Z,100766.48
2018-06-18T17:54:59.200Z,100762.39
2018-06-18T17:57:27.631Z,100756.73
2018-06-18T17:59:56.063Z,100762.51
2018-06-18T18:02:24.595Z,100754.29
2018-06-18T18:04:56.718Z,100758.73
2018-06-18T18:07:26.347Z,100753.77
2018-06-18T18:09:54.907Z,100751.08
2018-06-18T18:12:23.364Z,100762.03
2018-06-18T18:14:51.908Z,100759.99
2018-06-18T18:17:20.463Z,100757.47
2018-06-18T18:19:49.280Z,100756.69
2018-06-18T18:22:17.780Z,100763.35
2018-06-18T18:24:46.349Z,100766.16
2018-06-18T18:27:14.995Z,100764.88
2018-06-18T18:29:43.443Z,100765.89
2018-06-18T18:32:11.983Z,100769.62
2018-06-18T18:34:41.319Z,100768.09
2018-06-18T18:37:09.736Z,100763.62
2018-06-18T18:39:38.257Z,100766.22
2018-06-18T18:42:06.791Z,100763.41
2018-06-18T18:44:35.490Z,100759.55
2018-06-18T18:47:03.980Z,100762.02
2018-06-18T18:49:32.443Z,100757.11
2018-06-18T18:52:00.940Z,100759.80
2018-06-18T18:55:42.906Z,100757.33
2018-06-18T18:58:23.260Z,100759.55
2018-06-18T19:00:52.368Z,100756.23
2018-06-18T19:03:22.808Z,100757.31
2018-06-18T19:05:51.980Z,100752.70
2018-06-18T19:08:28.791Z,100760.77
2018-06-18T19:10:59.216Z,100763.48
2018-06-18T19:13:31.634Z,100760.57
2018-06-18T19:16:00.487Z,100758.56
2018-06-18T19:18:29.559Z,100751.91
2018-06-18T19:21:08.424Z,100764.22
2018-06-18T19:23:37.038Z,100767.72
2018-06-18T19:26:05.748Z,100766.86
2018-06-18T19:28:35.050Z,100762.80
2018-06-18T19:31:09.539Z,100775.73
2018-06-18T19:34:45.215Z,100771.13
2018-06-18T19:37:13.735Z,100781.18
2018-06-18T19:39:44.607Z,100785.89
2018-06-18T19:42:13.960Z,100784.45
2018-06-18T19:44:43.613Z,100785.16
2018-06-18T19:47:33.585Z,100792.47
2018-06-18T19:50:01.996Z,100795.77
2018-06-18T19:52:30.520Z,100801.23
2018-06-18T19:55:10.599Z,100796.80
2018-06-18T19:57:39.014Z,100803.48
2018-06-18T20:00:07.509Z,100808.84
2018-06-18T20:02:36.020Z,100809.98
2018-06-18T20:05:09.880Z,100809.80
2018-06-18T20:07:40.744Z,100809.11
2018-06-18T20:10:09.232Z,100814.73
2018-06-18T20:12:37.696Z,100818.09
2018-06-18T20:15:06.333Z,100817.02
2018-06-18T20:17:34.799Z,100821.20
2018-06-18T20:20:03.308Z,100822.28
2018-06-18T20:22:31.759Z,100828.06
2018-06-18T20:25:00.300Z,100828.14
2018-06-18T20:27:28.768Z,100824.78
2018-06-18T20:29:57.255Z,100831.64
2018-06-18T20:32:25.947Z,100843.22
2018-06-18T20:34:54.647Z,100833.45
2018-06-18T20:37:23.144Z,100834.57
2018-06-18T20:39:51.579Z,100848.17
2018-06-18T20:42:20.255Z,100839.91
2018-06-18T20:44:48.695Z,100838.17
2018-06-18T20:47:17.190Z,100842.70
2018-06-18T20:49:45.603Z,100847.21
2018-06-18T20:52:14.156Z,100838.72
2018-06-18T20:54:42.598Z,100841.97
2018-06-18T20:57:11.487Z,100847.59
2018-06-18T20:59:39.995Z,100847.39
2018-06-18T21:02:08.511Z,100849.33
2018-06-18T21:04:36.996Z,100844.79
2018-06-18T21:07:05.693Z,100848.20
2018-06-18T21:09:34.176Z,100841.03
2018-06-18T21:12:02.704Z,100849.74
2018-06-18T21:14:31.180Z,100854.09
2018-06-18T21:16:59.675Z,100847.16
2018-06-18T21:19:28.196Z,100846.90
2018-06-18T21:21:56.831Z,100846.02
2018-06-18T21:24:25.251Z,100846.06
2018-06-18T21:26:53.649Z,100844.37
2018-06-18T21:29:22.138Z,100843.50
2018-06-18T21:31:50.679Z,100845.62
2018-06-18T21:34:19.499Z,100847.03
2018-06-18T21:36:48.031Z,100854.64
2018-06-18T21:39:16.520Z,100860.94
2018-06-18T21:41:45.020Z,100859.83
2018-06-18T21:44:18.616Z,100859.47
2018-06-18T21:46:47.035Z,100857.43
2018-06-18T21:49:15.498Z,100869.25
2018-06-18T21:51:44.080Z,100866.78
2018-06-18T21:54:12.507Z,100866.14
2018-06-18T21:56:40.947Z,100870.73
2018-06-18T21:59:09.391Z,100870.14
2018-06-18T22:01:42.696Z,100864.20
2018-06-18T22:04:11.355Z,100855.95
2018-06-18T22:06:39.827Z,100865.45
2018-06-18T22:09:16.648Z,100866.96
2018-06-18T22:11:48.208Z,100853.59
2018-06-18T22:14:16.791Z,100857.67
2018-06-18T22:16:45.305Z,100851.98
2018-06-18T22:19:13.671Z,100857.22
2018-06-18T22:21:42.115Z,100866.06
2018-06-18T22:24:10.563Z,100862.02
2018-06-18T22:26:39.111Z,100856.64
2018-06-18T22:29:07.907Z,100861.48
2018-06-18T22:31:36.559Z,100864.78
2018-06-18T22:34:05.099Z,100867.12
2018-06-18T22:36:33.539Z,100869.92
2018-06-18T22:39:02.168Z,100869.52
2018-06-18T22:41:30.682Z,100871.82
2018-06-18T22:43:59.207Z,100866.56
2018-06-18T22:46:28.147Z,100870.68
2018-06-18T22:48:56.568Z,100873.59
2018-06-18T22:51:25.051Z,100876.27
2018-06-18T22:53:53.594Z,100875.08
2018-06-18T22:56:22.060Z,100878.97
2018-06-18T22:58:50.559Z,100878.11
2018-06-18T23:01:19.044Z,100884.11
2018-06-18T23:03:47.547Z,100870.63
2018-06-18T23:06:16.059Z,100875.16
2018-06-18T23:08:44.511Z,100875.03
2018-06-18T23:11:13.042Z,100876.05
2018-06-18T23:13:41.547Z,100877.14
2018-06-18T23:16:10.787Z,100881.80
2018-06-18T23:18:39.213Z,100880.73
2018-06-18T23:21:07.681Z,100879.77
2018-06-18T23:23:36.239Z,100882.80
2018-06-18T23:26:04.807Z,100880.38
2018-06-18T23:28:37.523Z,100882.30
2018-06-18T23:31:06.193Z,100886.38
2018-06-18T23:33:34.703Z,100888.53
2018-06-18T23:36:03.423Z,100875.88
2018-06-18T23:38:31.983Z,100886.41
2018-06-18T23:41:00.851Z,100889.48
2018-06-18T23:43:29.311Z,100883.30
2018-06-18T23:45:58.067Z,100890.49
2018-06-18T23:48:26.569Z,100884.91
2018-06-18T23:50:55.169Z,100884.91
2018-06-18T23:53:23.591Z,100879.58
2018-06-18T23:55:52.076Z,100889.62
2018-06-18T23:58:20.562Z,100881.70
